Time;durP1;ratioP1;P1;durP2;ratioP2;P2;SDS_P1;SDS_P2;PMS_P1;PMS_P2;Temp;Humidity;BMP_temperature;BMP_pressure;BME280_temperature;BME280_humidity;BME280_pressure;Samples;Min_cycle;Max_cycle;Signal;HPM_P1;HPM_P2
2023/11/29 00:00:12;;;;;;;14.93;11.02;;;;;;;;;;10408570;27;20143;-61
2023/11/29 00:05:16;;;;;;;12.50;10.45;;;;;;;;;;10381510;28;20076;-63
2023/11/29 00:10:26;;;;;;;12.93;10.77;;;;;;;;;;10383061;28;20512;-63
2023/11/29 00:15:28;;;;;;;10.00;9.00;;;;;;;;;;10400014;27;20139;-61
2023/11/29 00:20:31;;;;;;;10.40;8.60;;;;;;;;;;10382069;28;20543;-61
2023/11/29 00:25:32;;;;;;;10.00;8.98;;;;;;;;;;10397495;27;20071;-60
2023/11/29 00:30:32;;;;;;;12.18;9.35;;;;;;;;;;10382768;28;20131;-60
2023/11/29 00:35:33;;;;;;;10.73;9.63;;;;;;;;;;10382450;28;20143;-61
2023/11/29 00:40:32;;;;;;;11.93;10.60;;;;;;;;;;10382193;28;20083;-61
2023/11/29 00:45:33;;;;;;;11.50;10.40;;;;;;;;;;10382314;28;20083;-62
2023/11/29 00:50:35;;;;;;;10.60;9.43;;;;;;;;;;10381894;28;20082;-59
2023/11/29 00:55:34;;;;;;;11.80;10.27;;;;;;;;;;10379770;28;20631;-60
2023/11/29 01:00:34;;;;;;;10.40;9.23;;;;;;;;;;10414833;27;20079;-61
2023/11/29 01:05:35;;;;;;;12.15;9.27;;;;;;;;;;10404804;27;20082;-61
2023/11/29 01:10:39;;;;;;;11.55;9.05;;;;;;;;;;10423417;27;20134;-62
2023/11/29 01:15:38;;;;;;;11.50;10.25;;;;;;;;;;10405851;28;20074;-58
2023/11/29 01:20:38;;;;;;;11.98;10.77;;;;;;;;;;10424034;27;20058;-59
2023/11/29 01:25:37;;;;;;;15.60;12.80;;;;;;;;;;10423945;28;20596;-59
2023/11/29 01:30:37;;;;;;;12.30;10.70;;;;;;;;;;10422783;28;20067;-61
2023/11/29 01:35:35;;;;;;;25.50;18.17;;;;;;;;;;10421536;28;20126;-61
2023/11/29 01:40:35;;;;;;;12.65;11.20;;;;;;;;;;10420351;28;20134;-61
2023/11/29 01:45:33;;;;;;;15.70;13.50;;;;;;;;;;10421276;28;20127;-59
2023/11/29 01:50:34;;;;;;;14.27;12.77;;;;;;;;;;10421827;28;20131;-59
2023/11/29 01:55:33;;;;;;;16.30;14.60;;;;;;;;;;10420647;28;20178;-60
2023/11/29 02:00:33;;;;;;;13.98;12.23;;;;;;;;;;10401691;28;20133;-60
2023/11/29 02:05:31;;;;;;;12.90;11.60;;;;;;;;;;10420467;28;20130;-60
2023/11/29 02:10:29;;;;;;;12.30;11.13;;;;;;;;;;10419046;28;20081;-60
2023/11/29 02:15:28;;;;;;;12.00;10.80;;;;;;;;;;10419860;28;20574;-60
2023/11/29 02:20:27;;;;;;;13.10;11.80;;;;;;;;;;10408331;28;20139;-60
2023/11/29 02:25:27;;;;;;;13.15;10.38;;;;;;;;;;10420995;28;20118;-60
2023/11/29 02:30:25;;;;;;;9.18;8.20;;;;;;;;;;10420722;27;20130;-60
2023/11/29 02:35:24;;;;;;;10.80;8.90;;;;;;;;;;10428249;27;20082;-60
2023/11/29 02:40:23;;;;;;;10.00;8.93;;;;;;;;;;10427780;27;20074;-60
2023/11/29 02:45:22;;;;;;;11.48;10.32;;;;;;;;;;10424181;27;20075;-60
2023/11/29 02:50:21;;;;;;;10.40;9.32;;;;;;;;;;10427825;27;20130;-60
2023/11/29 02:55:19;;;;;;;10.32;8.77;;;;;;;;;;10425045;27;20063;-60
2023/11/29 03:00:17;;;;;;;10.70;9.65;;;;;;;;;;10425949;27;20141;-61
2023/11/29 03:05:17;;;;;;;8.98;8.05;;;;;;;;;;10426395;27;20082;-60
2023/11/29 03:10:16;;;;;;;9.07;8.20;;;;;;;;;;10407091;27;20213;-60
2023/11/29 03:15:15;;;;;;;7.75;6.97;;;;;;;;;;10426339;27;20118;-61
2023/11/29 03:20:13;;;;;;;8.63;7.72;;;;;;;;;;10425626;27;20134;-61
2023/11/29 03:25:13;;;;;;;9.25;8.25;;;;;;;;;;10426633;27;20162;-61
2023/11/29 03:30:13;;;;;;;9.18;7.90;;;;;;;;;;10421595;27;20248;-61
2023/11/29 03:35:11;;;;;;;7.90;7.10;;;;;;;;;;10423995;27;20158;-60
2023/11/29 03:40:10;;;;;;;8.43;7.45;;;;;;;;;;10424446;27;20130;-62
2023/11/29 03:45:11;;;;;;;12.80;11.60;;;;;;;;;;10424442;27;20078;-60
2023/11/29 03:50:09;;;;;;;10.35;9.35;;;;;;;;;;10424276;27;20351;-61
2023/11/29 03:55:08;;;;;;;18.98;14.43;;;;;;;;;;10422525;27;20066;-61
2023/11/29 04:00:08;;;;;;;21.75;15.02;;;;;;;;;;10422590;27;20147;-61
2023/11/29 04:05:08;;;;;;;10.55;9.55;;;;;;;;;;10424470;27;20118;-61
2023/11/29 04:10:07;;;;;;;11.13;10.10;;;;;;;;;;10424284;27;20138;-60
2023/11/29 04:15:09;;;;;;;9.68;8.20;;;;;;;;;;10405079;27;20120;-60
2023/11/29 04:20:09;;;;;;;7.50;6.80;;;;;;;;;;10424387;27;20130;-61
2023/11/29 04:25:07;;;;;;;7.53;6.82;;;;;;;;;;10420789;27;20142;-61
2023/11/29 04:30:06;;;;;;;7.55;6.78;;;;;;;;;;10422908;27;20071;-61
2023/11/29 04:35:05;;;;;;;8.07;7.13;;;;;;;;;;10421118;27;20321;-61
2023/11/29 04:40:06;;;;;;;7.25;6.55;;;;;;;;;;10403319;27;20134;-61
2023/11/29 04:45:05;;;;;;;8.68;7.20;;;;;;;;;;10431376;27;20154;-60
2023/11/29 04:50:04;;;;;;;8.80;7.38;;;;;;;;;;10402411;27;20078;-61
2023/11/29 04:55:02;;;;;;;7.95;7.03;;;;;;;;;;10421119;27;20081;-60
2023/11/29 05:00:04;;;;;;;7.15;6.45;;;;;;;;;;10421508;27;20150;-61
2023/11/29 05:05:02;;;;;;;8.02;7.30;;;;;;;;;;10420150;27;20128;-60
2023/11/29 05:10:01;;;;;;;9.43;7.57;;;;;;;;;;10397611;28;20074;-60
2023/11/29 05:14:59;;;;;;;7.13;6.43;;;;;;;;;;10415207;27;20488;-59
2023/11/29 05:19:59;;;;;;;6.90;6.30;;;;;;;;;;10426876;28;20156;-59
2023/11/29 05:24:58;;;;;;;5.80;5.30;;;;;;;;;;10428201;28;20062;-60
2023/11/29 05:29:56;;;;;;;6.47;5.80;;;;;;;;;;10424026;28;20070;-60
2023/11/29 05:34:55;;;;;;;8.48;7.20;;;;;;;;;;10430523;28;20616;-60
2023/11/29 05:39:56;;;;;;;8.38;7.45;;;;;;;;;;10424831;28;20067;-59
2023/11/29 05:44:55;;;;;;;8.27;7.40;;;;;;;;;;10411153;28;20067;-59
2023/11/29 05:49:53;;;;;;;7.53;5.63;;;;;;;;;;10416315;28;20066;-59
2023/11/29 05:54:52;;;;;;;5.70;5.20;;;;;;;;;;10415720;28;20071;-59
2023/11/29 05:59:55;;;;;;;4.72;4.32;;;;;;;;;;10407372;28;20090;-60
2023/11/29 06:04:53;;;;;;;5.75;5.15;;;;;;;;;;10428717;27;20573;-59
2023/11/29 06:09:52;;;;;;;6.10;5.32;;;;;;;;;;10433586;27;20460;-59
2023/11/29 06:14:50;;;;;;;7.90;6.57;;;;;;;;;;10426515;27;20142;-60
2023/11/29 06:19:50;;;;;;;8.38;6.78;;;;;;;;;;10428547;27;20114;-59
2023/11/29 06:24:48;;;;;;;9.07;7.85;;;;;;;;;;10430999;27;20112;-60
2023/11/29 06:29:46;;;;;;;5.50;4.90;;;;;;;;;;10426404;27;20126;-59
2023/11/29 06:34:45;;;;;;;5.70;5.20;;;;;;;;;;10426574;27;20480;-59
2023/11/29 06:39:46;;;;;;;6.88;6.15;;;;;;;;;;10429086;27;20146;-59
2023/11/29 06:44:45;;;;;;;7.68;6.22;;;;;;;;;;10428650;27;20071;-59
2023/11/29 06:49:44;;;;;;;6.32;4.80;;;;;;;;;;10428255;27;20157;-60
2023/11/29 06:54:43;;;;;;;7.15;6.45;;;;;;;;;;10434248;27;20067;-60
2023/11/29 06:59:42;;;;;;;7.95;6.55;;;;;;;;;;10431419;27;20101;-60
2023/11/29 07:04:42;;;;;;;7.68;6.28;;;;;;;;;;10426820;27;20131;-60
2023/11/29 07:09:41;;;;;;;8.50;7.63;;;;;;;;;;10433981;27;20058;-60
2023/11/29 07:14:42;;;;;;;7.97;6.63;;;;;;;;;;10428480;27;20078;-60
2023/11/29 07:19:41;;;;;;;9.70;8.80;;;;;;;;;;10429990;27;20073;-60
2023/11/29 07:24:39;;;;;;;29.83;26.15;;;;;;;;;;10428032;27;20063;-60
2023/11/29 07:29:37;;;;;;;20.33;13.65;;;;;;;;;;10431638;27;20075;-60
2023/11/29 07:34:37;;;;;;;16.17;11.25;;;;;;;;;;10424012;27;20058;-61
2023/11/29 07:39:35;;;;;;;16.80;10.88;;;;;;;;;;10427100;27;20134;-61
2023/11/29 07:44:33;;;;;;;5.72;4.80;;;;;;;;;;10426975;27;20067;-60
2023/11/29 07:49:31;;;;;;;15.65;10.85;;;;;;;;;;10411387;27;20070;-61
2023/11/29 07:54:31;;;;;;;10.05;8.35;;;;;;;;;;10412983;27;20067;-62
2023/11/29 07:59:30;;;;;;;14.15;8.55;;;;;;;;;;10413090;27;20078;-61
2023/11/29 08:04:28;;;;;;;6.00;5.50;;;;;;;;;;10414797;27;20063;-61
2023/11/29 08:09:26;;;;;;;4.82;4.35;;;;;;;;;;10415744;27;20089;-61
2023/11/29 08:14:26;;;;;;;7.80;7.00;;;;;;;;;;10416651;27;20071;-61
2023/11/29 08:19:25;;;;;;;7.53;6.80;;;;;;;;;;10417443;27;20066;-61
2023/11/29 08:24:23;;;;;;;5.38;4.88;;;;;;;;;;10417753;27;20084;-61
2023/11/29 08:29:22;;;;;;;5.18;4.68;;;;;;;;;;10416350;27;20070;-60
2023/11/29 08:34:21;;;;;;;4.85;4.40;;;;;;;;;;10416682;27;20078;-61
2023/11/29 08:39:21;;;;;;;6.78;6.18;;;;;;;;;;10415470;27;20086;-61
2023/11/29 08:44:22;;;;;;;6.13;5.60;;;;;;;;;;10418861;27;20067;-61
2023/11/29 08:49:21;;;;;;;6.50;5.90;;;;;;;;;;10418800;27;20086;-61
2023/11/29 08:54:20;;;;;;;5.65;5.15;;;;;;;;;;10416285;27;20106;-61
2023/11/29 08:59:18;;;;;;;9.02;7.57;;;;;;;;;;10415914;27;20082;-61
2023/11/29 09:04:16;;;;;;;6.70;5.78;;;;;;;;;;10411497;27;20557;-61
2023/11/29 09:09:17;;;;;;;21.77;15.75;;;;;;;;;;10412655;27;20077;-62
2023/11/29 09:14:15;;;;;;;10.02;8.38;;;;;;;;;;10418570;27;20078;-61
2023/11/29 09:19:13;;;;;;;8.75;5.93;;;;;;;;;;10418836;27;20098;-61
2023/11/29 09:24:11;;;;;;;13.02;9.80;;;;;;;;;;10414723;28;20062;-61
2023/11/29 09:29:11;;;;;;;8.50;7.63;;;;;;;;;;10413675;28;20067;-61
2023/11/29 09:34:09;;;;;;;8.73;7.90;;;;;;;;;;10415876;28;20064;-61
2023/11/29 09:39:12;;;;;;;7.22;6.28;;;;;;;;;;10414849;27;20507;-61
2023/11/29 09:44:12;;;;;;;9.10;7.32;;;;;;;;;;10404189;27;20073;-61
2023/11/29 09:49:11;;;;;;;6.65;5.80;;;;;;;;;;10422894;27;20074;-62
2023/11/29 09:54:10;;;;;;;10.77;6.43;;;;;;;;;;10424014;27;20078;-62
2023/11/29 09:59:09;;;;;;;8.27;6.93;;;;;;;;;;10417202;27;20075;-61
2023/11/29 10:04:09;;;;;;;12.32;10.63;;;;;;;;;;10424855;27;20074;-61
2023/11/29 10:09:11;;;;;;;20.35;12.32;;;;;;;;;;10422434;27;20585;-61
2023/11/29 10:14:11;;;;;;;14.00;8.82;;;;;;;;;;10421023;27;20071;-61
2023/11/29 10:19:11;;;;;;;10.63;6.82;;;;;;;;;;10422056;27;20078;-61
2023/11/29 10:24:09;;;;;;;5.32;4.72;;;;;;;;;;10421826;27;20093;-61
2023/11/29 10:29:09;;;;;;;5.88;4.97;;;;;;;;;;10421806;27;20517;-61
2023/11/29 10:34:09;;;;;;;8.75;6.45;;;;;;;;;;10423773;27;20067;-60
2023/11/29 10:39:11;;;;;;;16.55;12.23;;;;;;;;;;10422059;27;20538;-61
2023/11/29 10:44:11;;;;;;;18.83;12.77;;;;;;;;;;10421715;27;20105;-63
2023/11/29 10:49:12;;;;;;;14.52;12.32;;;;;;;;;;10414146;27;20071;-61
2023/11/29 10:54:12;;;;;;;13.10;9.90;;;;;;;;;;10419050;27;20075;-62
2023/11/29 10:59:32;;;;;;;17.65;12.85;;;;;;;;;;10419346;27;20075;-62
2023/11/29 11:04:31;;;;;;;11.32;8.52;;;;;;;;;;10422083;27;20063;-62
2023/11/29 11:09:36;;;;;;;21.65;13.25;;;;;;;;;;10420661;27;20062;-61
2023/11/29 11:14:35;;;;;;;;;;;;;;;;;;10421750;27;20122;-62
2023/11/29 11:19:37;;;;;;;22.58;18.40;;;;;;;;;;10419295;27;19973;-62
2023/11/29 11:24:54;;;;;;;14.07;10.85;;;;;;;;;;10415132;27;20532;-61
2023/11/29 11:29:53;;;;;;;16.90;11.48;;;;;;;;;;10420453;27;20483;-61
2023/11/29 11:34:54;;;;;;;14.73;10.85;;;;;;;;;;10421251;27;20069;-61
2023/11/29 11:39:52;;;;;;;11.55;9.98;;;;;;;;;;10420810;27;20077;-61
2023/11/29 11:44:50;;;;;;;10.35;9.25;;;;;;;;;;10419189;27;20474;-60
2023/11/29 11:49:50;;;;;;;11.00;9.90;;;;;;;;;;10420506;27;20066;-60
2023/11/29 11:54:49;;;;;;;9.80;8.75;;;;;;;;;;10418616;27;20535;-60
2023/11/29 11:59:48;;;;;;;7.32;6.63;;;;;;;;;;10418061;27;20489;-60
2023/11/29 12:04:46;;;;;;;11.57;10.18;;;;;;;;;;10418224;27;20066;-62
2023/11/29 12:09:47;;;;;;;11.52;10.32;;;;;;;;;;10417682;27;20071;-61
2023/11/29 12:14:45;;;;;;;11.05;9.85;;;;;;;;;;10418809;27;20451;-61
2023/11/29 12:19:47;;;;;;;16.23;13.77;;;;;;;;;;10416317;27;20075;-61
2023/11/29 12:24:47;;;;;;;12.45;11.35;;;;;;;;;;10417708;27;20074;-61
2023/11/29 12:29:47;;;;;;;10.45;9.30;;;;;;;;;;10416616;27;20078;-61
2023/11/29 12:34:46;;;;;;;12.45;11.15;;;;;;;;;;10417168;27;20078;-61
2023/11/29 12:39:45;;;;;;;9.68;8.27;;;;;;;;;;10420881;27;20075;-61
2023/11/29 12:44:45;;;;;;;15.27;13.68;;;;;;;;;;10416875;27;20062;-61
2023/11/29 12:49:43;;;;;;;16.20;14.52;;;;;;;;;;10412232;27;20066;-61
2023/11/29 12:54:42;;;;;;;14.20;12.80;;;;;;;;;;10417031;27;20074;-61
2023/11/29 12:59:42;;;;;;;18.45;14.90;;;;;;;;;;10413074;27;20079;-61
2023/11/29 13:04:43;;;;;;;14.15;11.82;;;;;;;;;;10413094;27;20066;-61
2023/11/29 13:09:42;;;;;;;12.65;10.63;;;;;;;;;;10419521;27;20078;-61
2023/11/29 13:14:41;;;;;;;14.00;9.88;;;;;;;;;;10414443;27;20067;-61
2023/11/29 13:19:42;;;;;;;12.95;11.30;;;;;;;;;;10414253;27;20483;-62
2023/11/29 13:24:40;;;;;;;10.63;9.52;;;;;;;;;;10408391;28;20081;-62
2023/11/29 13:29:39;;;;;;;9.13;8.23;;;;;;;;;;10415684;28;20067;-62
2023/11/29 13:34:37;;;;;;;10.25;9.18;;;;;;;;;;10417269;28;20079;-60
2023/11/29 13:39:37;;;;;;;10.52;9.35;;;;;;;;;;10414718;28;20459;-60
2023/11/29 13:44:35;;;;;;;11.10;9.27;;;;;;;;;;10414519;28;20075;-61
2023/11/29 13:49:34;;;;;;;13.85;12.45;;;;;;;;;;10415516;28;20063;-61
2023/11/29 13:54:32;;;;;;;17.77;13.90;;;;;;;;;;10415277;28;20067;-62
2023/11/29 13:59:32;;;;;;;15.45;10.55;;;;;;;;;;10413343;28;20090;-62
2023/11/29 14:04:30;;;;;;;12.80;11.50;;;;;;;;;;10415283;28;20465;-60
2023/11/29 14:09:29;;;;;;;9.68;8.55;;;;;;;;;;10413522;28;20062;-60
2023/11/29 14:14:27;;;;;;;13.07;11.02;;;;;;;;;;10415540;28;20739;-61
2023/11/29 14:19:27;;;;;;;21.88;19.25;;;;;;;;;;10413777;28;20074;-61
2023/11/29 14:24:25;;;;;;;22.33;18.05;;;;;;;;;;10413090;28;20540;-61
2023/11/29 14:29:24;;;;;;;21.83;16.77;;;;;;;;;;10422218;27;20077;-60
2023/11/29 14:34:22;;;;;;;26.70;20.80;;;;;;;;;;10423508;27;20078;-60
2023/11/29 14:39:24;;;;;;;23.08;18.83;;;;;;;;;;10421630;27;20063;-60
2023/11/29 14:44:22;;;;;;;16.15;14.35;;;;;;;;;;10416301;27;20066;-61
2023/11/29 14:49:20;;;;;;;16.35;13.23;;;;;;;;;;10422890;27;20082;-60
2023/11/29 14:54:27;;;;;;;16.15;13.10;;;;;;;;;;10420583;27;20063;-62
2023/11/29 14:59:25;;;;;;;15.35;13.30;;;;;;;;;;10396497;27;20081;-60
2023/11/29 15:04:24;;;;;;;17.23;13.15;;;;;;;;;;10419807;27;20121;-60
2023/11/29 15:09:22;;;;;;;32.60;20.90;;;;;;;;;;10419525;27;20063;-61
2023/11/29 15:14:22;;;;;;;114.00;62.05;;;;;;;;;;10421412;27;20116;-61
2023/11/29 15:19:20;;;;;;;35.55;24.60;;;;;;;;;;10418790;27;20059;-61
2023/11/29 15:24:18;;;;;;;18.25;15.65;;;;;;;;;;10419551;27;20090;-61
2023/11/29 15:29:17;;;;;;;14.07;11.77;;;;;;;;;;10419834;27;20073;-62
2023/11/29 15:34:16;;;;;;;19.65;14.73;;;;;;;;;;10421307;27;20485;-62
2023/11/29 15:39:15;;;;;;;21.02;14.05;;;;;;;;;;10418642;27;20544;-61
2023/11/29 15:44:13;;;;;;;26.60;19.75;;;;;;;;;;10419958;27;20070;-61
2023/11/29 15:49:11;;;;;;;42.67;32.22;;;;;;;;;;10410874;27;20089;-62
2023/11/29 15:54:11;;;;;;;23.35;19.33;;;;;;;;;;10418460;27;20075;-61
2023/11/29 15:59:09;;;;;;;15.63;12.10;;;;;;;;;;10419921;27;20538;-61
2023/11/29 16:04:07;;;;;;;16.98;15.27;;;;;;;;;;10423090;27;20591;-61
2023/11/29 16:09:06;;;;;;;17.67;14.23;;;;;;;;;;10428854;27;20063;-61
2023/11/29 16:14:05;;;;;;;13.93;11.05;;;;;;;;;;10422003;27;20169;-61
2023/11/29 16:19:03;;;;;;;11.32;10.07;;;;;;;;;;10425366;27;20071;-61
2023/11/29 16:24:02;;;;;;;12.50;10.63;;;;;;;;;;10417801;27;20067;-59
2023/11/29 16:29:00;;;;;;;14.23;9.40;;;;;;;;;;10421548;27;20150;-60
2023/11/29 16:34:00;;;;;;;11.43;9.60;;;;;;;;;;10416371;27;20130;-59
2023/11/29 16:38:58;;;;;;;10.52;9.50;;;;;;;;;;10418280;27;20074;-60
2023/11/29 16:43:57;;;;;;;14.88;11.95;;;;;;;;;;10417714;27;20122;-60
2023/11/29 16:48:55;;;;;;;17.42;13.80;;;;;;;;;;10420072;27;20118;-63
2023/11/29 16:53:55;;;;;;;16.25;12.82;;;;;;;;;;10420041;27;20129;-63
2023/11/29 16:58:53;;;;;;;18.75;14.75;;;;;;;;;;10422803;27;20122;-63
2023/11/29 17:03:53;;;;;;;23.60;16.38;;;;;;;;;;10419967;27;20118;-60
2023/11/29 17:08:52;;;;;;;14.75;13.15;;;;;;;;;;10420114;27;20122;-62
2023/11/29 17:13:52;;;;;;;17.02;14.20;;;;;;;;;;10426683;27;20091;-62
2023/11/29 17:18:51;;;;;;;14.55;10.63;;;;;;;;;;10416381;27;20142;-62
2023/11/29 17:23:49;;;;;;;17.63;12.95;;;;;;;;;;10417067;27;20513;-62
2023/11/29 17:28:47;;;;;;;15.50;12.80;;;;;;;;;;10420382;28;20512;-62
2023/11/29 17:33:47;;;;;;;17.77;13.23;;;;;;;;;;10419442;28;20067;-62
2023/11/29 17:38:46;;;;;;;15.55;11.93;;;;;;;;;;10398318;28;20066;-63
2023/11/29 17:43:44;;;;;;;16.92;12.73;;;;;;;;;;10416530;27;20158;-62
2023/11/29 17:48:42;;;;;;;12.45;11.15;;;;;;;;;;10421073;28;20066;-62
2023/11/29 17:53:42;;;;;;;16.60;12.50;;;;;;;;;;10419275;28;20514;-63
2023/11/29 17:58:40;;;;;;;15.30;13.57;;;;;;;;;;10417793;28;20560;-63
2023/11/29 18:03:39;;;;;;;16.10;12.75;;;;;;;;;;10421112;27;20142;-63
2023/11/29 18:08:37;;;;;;;16.05;13.35;;;;;;;;;;10425276;27;20118;-62
2023/11/29 18:13:37;;;;;;;24.60;17.85;;;;;;;;;;10426913;27;20150;-62
2023/11/29 18:18:38;;;;;;;14.98;12.90;;;;;;;;;;10425048;27;20494;-62
2023/11/29 18:23:37;;;;;;;19.73;15.38;;;;;;;;;;10429346;27;20122;-63
2023/11/29 18:28:37;;;;;;;18.98;13.45;;;;;;;;;;10425450;27;20137;-62
2023/11/29 18:33:35;;;;;;;39.58;24.58;;;;;;;;;;10422617;27;20149;-62
2023/11/29 18:38:33;;;;;;;12.52;11.20;;;;;;;;;;10423327;27;20571;-62
2023/11/29 18:43:32;;;;;;;12.18;10.98;;;;;;;;;;10422891;27;20143;-62
2023/11/29 18:48:34;;;;;;;14.48;12.60;;;;;;;;;;10422780;27;20551;-62
2023/11/29 18:53:32;;;;;;;12.45;11.15;;;;;;;;;;10421774;27;20331;-62
2023/11/29 18:58:30;;;;;;;15.02;12.90;;;;;;;;;;10422622;27;20079;-62
2023/11/29 19:03:29;;;;;;;18.00;13.65;;;;;;;;;;10421649;27;20158;-61
2023/11/29 19:08:31;;;;;;;16.88;14.38;;;;;;;;;;10422401;27;20066;-62
2023/11/29 19:13:29;;;;;;;28.08;21.23;;;;;;;;;;10421478;27;20118;-61
2023/11/29 19:18:28;;;;;;;15.75;13.48;;;;;;;;;;10430730;27;20064;-62
2023/11/29 19:23:27;;;;;;;14.77;13.05;;;;;;;;;;10431617;27;20077;-62
2023/11/29 19:28:36;;;;;;;12.52;11.20;;;;;;;;;;10420676;27;20154;-62
2023/11/29 19:33:35;;;;;;;12.88;11.60;;;;;;;;;;10421271;27;20079;-62
2023/11/29 19:38:33;;;;;;;13.65;11.23;;;;;;;;;;10421574;27;20184;-61
2023/11/29 19:43:31;;;;;;;12.93;10.50;;;;;;;;;;10419966;27;20138;-62
2023/11/29 19:48:31;;;;;;;16.73;13.73;;;;;;;;;;10419752;27;20122;-63
2023/11/29 19:53:29;;;;;;;12.98;11.55;;;;;;;;;;10419204;27;20135;-62
2023/11/29 19:58:27;;;;;;;12.80;11.50;;;;;;;;;;10419491;27;20126;-63
2023/11/29 20:03:31;;;;;;;17.25;14.10;;;;;;;;;;10417512;27;20131;-64
2023/11/29 20:08:29;;;;;;;13.43;12.02;;;;;;;;;;10423455;27;20067;-64
2023/11/29 20:13:28;;;;;;;13.32;11.93;;;;;;;;;;10428908;27;20077;-60
2023/11/29 20:18:26;;;;;;;14.15;11.85;;;;;;;;;;10430945;27;20062;-62
2023/11/29 20:23:28;;;;;;;13.77;12.27;;;;;;;;;;10421454;27;20484;-60
2023/11/29 20:28:26;;;;;;;14.27;12.75;;;;;;;;;;10417391;27;20130;-61
2023/11/29 20:33:24;;;;;;;12.82;11.52;;;;;;;;;;10420237;27;20550;-63
2023/11/29 20:38:24;;;;;;;14.10;12.15;;;;;;;;;;10417916;27;20138;-62
2023/11/29 20:43:24;;;;;;;13.45;12.05;;;;;;;;;;10418408;27;20142;-61
2023/11/29 20:48:22;;;;;;;13.65;12.25;;;;;;;;;;10426732;27;20566;-62
2023/11/29 20:53:20;;;;;;;14.45;12.77;;;;;;;;;;10415085;27;20086;-62
2023/11/29 20:58:19;;;;;;;15.50;13.25;;;;;;;;;;10392922;27;20082;-62
2023/11/29 21:03:20;;;;;;;15.25;12.98;;;;;;;;;;10411290;27;20071;-62
2023/11/29 21:08:19;;;;;;;16.58;13.57;;;;;;;;;;10413259;27;20077;-61
2023/11/29 21:13:17;;;;;;;18.58;14.65;;;;;;;;;;10414663;27;20078;-61
2023/11/29 21:18:16;;;;;;;22.10;16.02;;;;;;;;;;10418068;27;20130;-61
2023/11/29 21:23:16;;;;;;;26.38;17.85;;;;;;;;;;10418528;27;20681;-61
2023/11/29 21:28:14;;;;;;;16.98;13.35;;;;;;;;;;10419373;28;20071;-61
2023/11/29 21:33:12;;;;;;;15.40;13.80;;;;;;;;;;10418696;28;20446;-60
2023/11/29 21:38:10;;;;;;;13.93;12.15;;;;;;;;;;10398875;27;20130;-61
2023/11/29 21:43:11;;;;;;;16.23;14.40;;;;;;;;;;10408267;27;20130;-61
2023/11/29 21:48:11;;;;;;;20.60;15.20;;;;;;;;;;10429350;27;20077;-61
2023/11/29 21:53:10;;;;;;;19.50;14.18;;;;;;;;;;10432211;27;20070;-62
2023/11/29 21:58:10;;;;;;;19.10;14.25;;;;;;;;;;10428416;27;20151;-61
2023/11/29 22:03:08;;;;;;;20.73;14.73;;;;;;;;;;10433455;27;20463;-62
2023/11/29 22:08:07;;;;;;;18.83;15.05;;;;;;;;;;10434181;27;20496;-61
2023/11/29 22:13:05;;;;;;;18.42;15.00;;;;;;;;;;10405265;27;20112;-61
2023/11/29 22:18:05;;;;;;;15.73;14.05;;;;;;;;;;10428543;27;20114;-61
2023/11/29 22:23:03;;;;;;;15.98;14.07;;;;;;;;;;10429130;27;20122;-62
2023/11/29 22:28:02;;;;;;;13.75;12.35;;;;;;;;;;10423538;27;20138;-62
2023/11/29 22:33:00;;;;;;;14.30;12.35;;;;;;;;;;10422760;27;20154;-62
2023/11/29 22:38:00;;;;;;;12.88;11.48;;;;;;;;;;10424311;27;20150;-61
2023/11/29 22:42:58;;;;;;;12.32;11.13;;;;;;;;;;10424263;27;20134;-61
2023/11/29 22:47:56;;;;;;;13.23;11.63;;;;;;;;;;10421191;27;20122;-62
2023/11/29 22:52:55;;;;;;;13.73;11.80;;;;;;;;;;10425770;27;20086;-61
2023/11/29 22:57:55;;;;;;;13.32;11.93;;;;;;;;;;10425817;27;20134;-61
2023/11/29 23:02:53;;;;;;;14.90;13.25;;;;;;;;;;10425806;27;20075;-62
2023/11/29 23:07:51;;;;;;;17.42;14.30;;;;;;;;;;10423214;27;20130;-60
2023/11/29 23:12:50;;;;;;;24.75;16.88;;;;;;;;;;10424794;27;20162;-61
2023/11/29 23:17:49;;;;;;;13.88;12.30;;;;;;;;;;10425609;27;20444;-61
2023/11/29 23:22:48;;;;;;;15.43;13.70;;;;;;;;;;10423733;27;20134;-61
2023/11/29 23:27:46;;;;;;;13.68;11.80;;;;;;;;;;10424242;27;20186;-61
2023/11/29 23:32:45;;;;;;;15.82;14.07;;;;;;;;;;10422491;27;20163;-61
2023/11/29 23:37:44;;;;;;;14.45;12.95;;;;;;;;;;10419660;27;20205;-62
2023/11/29 23:42:43;;;;;;;14.05;12.30;;;;;;;;;;10421697;27;20125;-61
2023/11/29 23:47:41;;;;;;;12.43;10.95;;;;;;;;;;10421200;27;20139;-62
2023/11/29 23:52:39;;;;;;;12.75;11.38;;;;;;;;;;10420359;27;20129;-62
2023/11/29 23:57:39;;;;;;;13.27;11.88;;;;;;;;;;10420411;27;20126;-63
